aviador You're here:

WIII Decoded Metar

JAKARTA in INDONESIA
Report Time2017-10-24 02:00:00
UTC Time2017-10-24 02:21:26
Flight Rules mvfr MVFR
WindVRB at 04 kt
Visibility6000 m
Phenomena:N/A
Clouds:Few 022 Hf
Expected CloudBase > 1,600 ft AGL from Temp-Dew spread
CeilingNone
Temp29°C (ISA +14)
Dew Point25°C (79% RH)
Heat Index34.5°C
QNH1013 hPa
Density Alt2,054 ft
Elevation26 ft
Report Wrong Elevation
Raw Report
METAR WIII 240200Z VRB04KT 6000 FEW022 29/25 Q1013 NOSIG=

Extra information for WIII:More info

Metar Taf Metar & Taf Last 4 Metars F.Rules Stats Wind Profile Meteogram Temp Stats Airport Information Weather charts Add Link Nearby VenuesMetar ALERT Operation Metar Decoded Social comments